sensor_id;sensor_type;location;lat;lon;timestamp;P1;durP1;ratioP1;P2;durP2;ratioP2
55641;SDS011;41509;53.108;6.100;2023-04-07T00:00:06;15.03;;;8.47;;
55641;SDS011;41509;53.108;6.100;2023-04-07T00:02:34;15.65;;;8.32;;
55641;SDS011;41509;53.108;6.100;2023-04-07T00:05:00;15.07;;;8.82;;
55641;SDS011;41509;53.108;6.100;2023-04-07T00:07:26;12.63;;;8.25;;
55641;SDS011;41509;53.108;6.100;2023-04-07T00:09:52;14.93;;;9.20;;
55641;SDS011;41509;53.108;6.100;2023-04-07T00:12:18;14.43;;;8.73;;
55641;SDS011;41509;53.108;6.100;2023-04-07T00:14:43;15.47;;;8.60;;
55641;SDS011;41509;53.108;6.100;2023-04-07T00:17:09;17.70;;;9.43;;
55641;SDS011;41509;53.108;6.100;2023-04-07T00:19:35;14.10;;;8.47;;
55641;SDS011;41509;53.108;6.100;2023-04-07T00:22:00;17.10;;;9.23;;
55641;SDS011;41509;53.108;6.100;2023-04-07T00:24:26;14.57;;;8.57;;
55641;SDS011;41509;53.108;6.100;2023-04-07T00:26:52;14.07;;;9.17;;
55641;SDS011;41509;53.108;6.100;2023-04-07T00:29:20;15.23;;;8.27;;
55641;SDS011;41509;53.108;6.100;2023-04-07T00:31:48;13.82;;;8.80;;
55641;SDS011;41509;53.108;6.100;2023-04-07T00:34:13;14.87;;;9.23;;
55641;SDS011;41509;53.108;6.100;2023-04-07T00:36:39;14.37;;;8.97;;
55641;SDS011;41509;53.108;6.100;2023-04-07T00:39:05;16.37;;;9.37;;
55641;SDS011;41509;53.108;6.100;2023-04-07T00:41:32;16.17;;;9.03;;
55641;SDS011;41509;53.108;6.100;2023-04-07T00:43:59;15.27;;;8.63;;
55641;SDS011;41509;53.108;6.100;2023-04-07T00:46:24;14.47;;;8.53;;
55641;SDS011;41509;53.108;6.100;2023-04-07T00:48:53;16.17;;;8.80;;
55641;SDS011;41509;53.108;6.100;2023-04-07T00:51:19;15.38;;;9.00;;
55641;SDS011;41509;53.108;6.100;2023-04-07T00:53:46;14.82;;;9.18;;
55641;SDS011;41509;53.108;6.100;2023-04-07T00:58:38;16.38;;;9.18;;
55641;SDS011;41509;53.108;6.100;2023-04-07T01:01:10;13.80;;;8.50;;
55641;SDS011;41509;53.108;6.100;2023-04-07T01:03:45;15.40;;;9.37;;
55641;SDS011;41509;53.108;6.100;2023-04-07T01:06:21;14.85;;;9.57;;
55641;SDS011;41509;53.108;6.100;2023-04-07T01:09:34;15.85;;;9.35;;
55641;SDS011;41509;53.108;6.100;2023-04-07T01:14:31;16.55;;;9.65;;
55641;SDS011;41509;53.108;6.100;2023-04-07T01:17:02;15.68;;;10.02;;
55641;SDS011;41509;53.108;6.100;2023-04-07T01:22:32;15.63;;;9.45;;
55641;SDS011;41509;53.108;6.100;2023-04-07T01:30:32;16.38;;;9.93;;
55641;SDS011;41509;53.108;6.100;2023-04-07T01:33:01;16.42;;;9.35;;
55641;SDS011;41509;53.108;6.100;2023-04-07T01:35:31;16.98;;;9.32;;
55641;SDS011;41509;53.108;6.100;2023-04-07T01:38:02;16.88;;;8.82;;
55641;SDS011;41509;53.108;6.100;2023-04-07T01:40:29;16.85;;;9.32;;
55641;SDS011;41509;53.108;6.100;2023-04-07T01:42:59;17.90;;;10.32;;
55641;SDS011;41509;53.108;6.100;2023-04-07T01:45:26;17.27;;;10.20;;
55641;SDS011;41509;53.108;6.100;2023-04-07T01:47:53;15.45;;;9.55;;
55641;SDS011;41509;53.108;6.100;2023-04-07T01:50:20;19.08;;;10.00;;
55641;SDS011;41509;53.108;6.100;2023-04-07T01:52:46;15.55;;;9.20;;
55641;SDS011;41509;53.108;6.100;2023-04-07T01:55:12;18.52;;;10.50;;
55641;SDS011;41509;53.108;6.100;2023-04-07T01:57:38;16.05;;;10.07;;
55641;SDS011;41509;53.108;6.100;2023-04-07T02:00:04;17.40;;;10.90;;
55641;SDS011;41509;53.108;6.100;2023-04-07T02:02:32;18.45;;;10.30;;
55641;SDS011;41509;53.108;6.100;2023-04-07T02:05:06;15.65;;;9.27;;
55641;SDS011;41509;53.108;6.100;2023-04-07T02:07:52;18.15;;;10.35;;
55641;SDS011;41509;53.108;6.100;2023-04-07T02:10:25;16.73;;;10.55;;
55641;SDS011;41509;53.108;6.100;2023-04-07T02:12:53;19.23;;;10.18;;
55641;SDS011;41509;53.108;6.100;2023-04-07T02:15:21;18.00;;;10.48;;
55641;SDS011;41509;53.108;6.100;2023-04-07T02:17:48;17.92;;;10.90;;
55641;SDS011;41509;53.108;6.100;2023-04-07T02:20:17;17.80;;;10.48;;
55641;SDS011;41509;53.108;6.100;2023-04-07T02:22:45;19.15;;;10.85;;
55641;SDS011;41509;53.108;6.100;2023-04-07T02:27:45;23.27;;;9.93;;
55641;SDS011;41509;53.108;6.100;2023-04-07T02:30:11;16.03;;;9.90;;
55641;SDS011;41509;53.108;6.100;2023-04-07T02:32:36;17.10;;;10.05;;
55641;SDS011;41509;53.108;6.100;2023-04-07T02:35:02;16.73;;;9.67;;
55641;SDS011;41509;53.108;6.100;2023-04-07T02:37:28;19.40;;;10.25;;
55641;SDS011;41509;53.108;6.100;2023-04-07T02:39:53;17.90;;;10.43;;
55641;SDS011;41509;53.108;6.100;2023-04-07T02:42:19;18.70;;;11.13;;
55641;SDS011;41509;53.108;6.100;2023-04-07T02:44:47;17.38;;;9.93;;
55641;SDS011;41509;53.108;6.100;2023-04-07T02:47:18;17.90;;;10.05;;
55641;SDS011;41509;53.108;6.100;2023-04-07T02:49:44;15.77;;;9.98;;
55641;SDS011;41509;53.108;6.100;2023-04-07T02:52:10;18.50;;;11.10;;
55641;SDS011;41509;53.108;6.100;2023-04-07T02:54:39;18.65;;;10.38;;
55641;SDS011;41509;53.108;6.100;2023-04-07T02:57:05;18.60;;;10.02;;
55641;SDS011;41509;53.108;6.100;2023-04-07T02:59:30;17.03;;;10.00;;
55641;SDS011;41509;53.108;6.100;2023-04-07T03:01:56;17.63;;;10.73;;
55641;SDS011;41509;53.108;6.100;2023-04-07T03:04:22;17.93;;;10.20;;
55641;SDS011;41509;53.108;6.100;2023-04-07T03:06:47;18.33;;;10.20;;
55641;SDS011;41509;53.108;6.100;2023-04-07T03:09:13;18.10;;;10.60;;
55641;SDS011;41509;53.108;6.100;2023-04-07T03:11:39;15.73;;;10.18;;
55641;SDS011;41509;53.108;6.100;2023-04-07T03:16:31;19.17;;;10.30;;
55641;SDS011;41509;53.108;6.100;2023-04-07T03:18:56;19.93;;;11.37;;
55641;SDS011;41509;53.108;6.100;2023-04-07T03:21:22;16.83;;;10.43;;
55641;SDS011;41509;53.108;6.100;2023-04-07T03:23:48;18.80;;;10.33;;
55641;SDS011;41509;53.108;6.100;2023-04-07T03:26:13;15.17;;;9.00;;
55641;SDS011;41509;53.108;6.100;2023-04-07T03:28:39;19.03;;;11.00;;
55641;SDS011;41509;53.108;6.100;2023-04-07T03:31:05;18.27;;;10.70;;
55641;SDS011;41509;53.108;6.100;2023-04-07T03:33:30;20.37;;;11.20;;
55641;SDS011;41509;53.108;6.100;2023-04-07T03:35:56;20.57;;;11.10;;
55641;SDS011;41509;53.108;6.100;2023-04-07T03:38:21;17.90;;;10.80;;
55641;SDS011;41509;53.108;6.100;2023-04-07T03:40:47;18.47;;;10.03;;
55641;SDS011;41509;53.108;6.100;2023-04-07T03:43:13;19.17;;;10.63;;
55641;SDS011;41509;53.108;6.100;2023-04-07T03:45:40;17.45;;;10.27;;
55641;SDS011;41509;53.108;6.100;2023-04-07T03:48:06;17.85;;;10.30;;
55641;SDS011;41509;53.108;6.100;2023-04-07T03:50:36;19.15;;;11.50;;
55641;SDS011;41509;53.108;6.100;2023-04-07T03:53:03;21.90;;;11.63;;
55641;SDS011;41509;53.108;6.100;2023-04-07T03:55:28;19.13;;;11.10;;
55641;SDS011;41509;53.108;6.100;2023-04-07T03:57:54;19.97;;;11.17;;
55641;SDS011;41509;53.108;6.100;2023-04-07T04:00:20;20.02;;;11.90;;
55641;SDS011;41509;53.108;6.100;2023-04-07T04:02:46;18.73;;;10.60;;
55641;SDS011;41509;53.108;6.100;2023-04-07T04:05:11;19.93;;;10.17;;
55641;SDS011;41509;53.108;6.100;2023-04-07T04:07:37;17.67;;;10.60;;
55641;SDS011;41509;53.108;6.100;2023-04-07T04:10:03;18.77;;;10.37;;
55641;SDS011;41509;53.108;6.100;2023-04-07T04:12:29;18.05;;;10.80;;
55641;SDS011;41509;53.108;6.100;2023-04-07T04:14:58;19.23;;;10.93;;
55641;SDS011;41509;53.108;6.100;2023-04-07T04:17:23;17.60;;;10.18;;
55641;SDS011;41509;53.108;6.100;2023-04-07T04:22:15;17.50;;;9.68;;
55641;SDS011;41509;53.108;6.100;2023-04-07T04:24:41;21.25;;;10.70;;
55641;SDS011;41509;53.108;6.100;2023-04-07T04:27:07;18.67;;;10.60;;
55641;SDS011;41509;53.108;6.100;2023-04-07T04:29:33;16.60;;;9.57;;
55641;SDS011;41509;53.108;6.100;2023-04-07T04:31:58;21.03;;;10.10;;
55641;SDS011;41509;53.108;6.100;2023-04-07T04:34:24;19.10;;;10.90;;
55641;SDS011;41509;53.108;6.100;2023-04-07T04:36:50;17.77;;;10.27;;
55641;SDS011;41509;53.108;6.100;2023-04-07T04:39:16;17.60;;;10.27;;
55641;SDS011;41509;53.108;6.100;2023-04-07T04:41:41;21.13;;;11.00;;
55641;SDS011;41509;53.108;6.100;2023-04-07T04:44:07;17.75;;;9.50;;
55641;SDS011;41509;53.108;6.100;2023-04-07T04:46:33;19.10;;;10.67;;
55641;SDS011;41509;53.108;6.100;2023-04-07T04:48:59;23.45;;;10.38;;
55641;SDS011;41509;53.108;6.100;2023-04-07T04:51:24;18.03;;;10.20;;
55641;SDS011;41509;53.108;6.100;2023-04-07T04:53:51;15.90;;;9.10;;
55641;SDS011;41509;53.108;6.100;2023-04-07T04:56:17;15.70;;;9.10;;
55641;SDS011;41509;53.108;6.100;2023-04-07T04:58:42;17.70;;;10.27;;
55641;SDS011;41509;53.108;6.100;2023-04-07T05:01:13;13.77;;;8.60;;
55641;SDS011;41509;53.108;6.100;2023-04-07T05:03:39;14.82;;;8.13;;
55641;SDS011;41509;53.108;6.100;2023-04-07T05:06:05;17.87;;;8.73;;
55641;SDS011;41509;53.108;6.100;2023-04-07T05:08:33;14.70;;;8.43;;
55641;SDS011;41509;53.108;6.100;2023-04-07T05:10:59;12.27;;;7.03;;
55641;SDS011;41509;53.108;6.100;2023-04-07T05:13:25;15.48;;;7.60;;
55641;SDS011;41509;53.108;6.100;2023-04-07T05:15:50;12.40;;;7.27;;
55641;SDS011;41509;53.108;6.100;2023-04-07T05:18:16;13.50;;;7.53;;
55641;SDS011;41509;53.108;6.100;2023-04-07T05:20:47;13.98;;;7.68;;
55641;SDS011;41509;53.108;6.100;2023-04-07T05:23:13;13.80;;;8.57;;
55641;SDS011;41509;53.108;6.100;2023-04-07T05:25:38;13.03;;;7.33;;
55641;SDS011;41509;53.108;6.100;2023-04-07T05:28:04;13.37;;;7.37;;
55641;SDS011;41509;53.108;6.100;2023-04-07T05:30:30;13.95;;;7.80;;
55641;SDS011;41509;53.108;6.100;2023-04-07T05:32:55;13.73;;;7.57;;
55641;SDS011;41509;53.108;6.100;2023-04-07T05:35:21;14.37;;;8.10;;
55641;SDS011;41509;53.108;6.100;2023-04-07T05:37:47;14.77;;;8.38;;
55641;SDS011;41509;53.108;6.100;2023-04-07T05:40:13;13.97;;;8.10;;
55641;SDS011;41509;53.108;6.100;2023-04-07T05:42:39;15.70;;;8.27;;
55641;SDS011;41509;53.108;6.100;2023-04-07T05:45:05;14.70;;;8.48;;
55641;SDS011;41509;53.108;6.100;2023-04-07T05:47:31;12.52;;;7.30;;
55641;SDS011;41509;53.108;6.100;2023-04-07T05:49:57;15.63;;;8.70;;
55641;SDS011;41509;53.108;6.100;2023-04-07T05:52:23;14.33;;;8.57;;
55641;SDS011;41509;53.108;6.100;2023-04-07T05:54:51;13.83;;;7.13;;
55641;SDS011;41509;53.108;6.100;2023-04-07T05:57:20;13.50;;;7.57;;
55641;SDS011;41509;53.108;6.100;2023-04-07T05:59:46;13.18;;;7.55;;
55641;SDS011;41509;53.108;6.100;2023-04-07T06:02:12;10.50;;;6.57;;
55641;SDS011;41509;53.108;6.100;2023-04-07T06:04:38;13.20;;;7.80;;
55641;SDS011;41509;53.108;6.100;2023-04-07T06:07:06;9.57;;;6.70;;
55641;SDS011;41509;53.108;6.100;2023-04-07T06:09:32;11.73;;;7.03;;
55641;SDS011;41509;53.108;6.100;2023-04-07T06:11:58;13.77;;;7.37;;
55641;SDS011;41509;53.108;6.100;2023-04-07T06:14:25;13.90;;;7.70;;
55641;SDS011;41509;53.108;6.100;2023-04-07T06:16:50;11.30;;;6.40;;
55641;SDS011;41509;53.108;6.100;2023-04-07T06:19:19;13.73;;;6.68;;
55641;SDS011;41509;53.108;6.100;2023-04-07T06:21:47;11.93;;;7.15;;
55641;SDS011;41509;53.108;6.100;2023-04-07T06:24:13;11.43;;;6.97;;
55641;SDS011;41509;53.108;6.100;2023-04-07T06:26:39;11.87;;;7.10;;
55641;SDS011;41509;53.108;6.100;2023-04-07T06:29:05;12.38;;;6.13;;
55641;SDS011;41509;53.108;6.100;2023-04-07T06:31:31;10.30;;;6.17;;
55641;SDS011;41509;53.108;6.100;2023-04-07T06:33:57;10.43;;;6.20;;
55641;SDS011;41509;53.108;6.100;2023-04-07T06:36:22;11.00;;;6.50;;
55641;SDS011;41509;53.108;6.100;2023-04-07T06:38:48;9.50;;;6.10;;
55641;SDS011;41509;53.108;6.100;2023-04-07T06:41:14;9.40;;;6.32;;
55641;SDS011;41509;53.108;6.100;2023-04-07T06:43:50;10.40;;;6.63;;
55641;SDS011;41509;53.108;6.100;2023-04-07T06:46:16;12.10;;;6.65;;
55641;SDS011;41509;53.108;6.100;2023-04-07T06:51:08;10.93;;;6.57;;
55641;SDS011;41509;53.108;6.100;2023-04-07T06:53:33;11.13;;;6.53;;
55641;SDS011;41509;53.108;6.100;2023-04-07T06:56:05;12.38;;;7.38;;
55641;SDS011;41509;53.108;6.100;2023-04-07T06:58:35;12.05;;;6.68;;
55641;SDS011;41509;53.108;6.100;2023-04-07T07:01:01;11.70;;;7.00;;
55641;SDS011;41509;53.108;6.100;2023-04-07T07:05:55;10.90;;;6.53;;
55641;SDS011;41509;53.108;6.100;2023-04-07T07:10:47;10.68;;;6.75;;
55641;SDS011;41509;53.108;6.100;2023-04-07T07:13:13;11.98;;;6.53;;
55641;SDS011;41509;53.108;6.100;2023-04-07T07:15:39;11.63;;;7.20;;
55641;SDS011;41509;53.108;6.100;2023-04-07T07:18:05;11.57;;;6.60;;
55641;SDS011;41509;53.108;6.100;2023-04-07T07:20:30;10.53;;;6.43;;
55641;SDS011;41509;53.108;6.100;2023-04-07T07:22:56;11.57;;;6.67;;
55641;SDS011;41509;53.108;6.100;2023-04-07T07:25:22;11.90;;;7.50;;
55641;SDS011;41509;53.108;6.100;2023-04-07T07:27:53;11.48;;;7.13;;
55641;SDS011;41509;53.108;6.100;2023-04-07T07:30:19;12.75;;;7.75;;
55641;SDS011;41509;53.108;6.100;2023-04-07T07:32:46;12.48;;;7.82;;
55641;SDS011;41509;53.108;6.100;2023-04-07T07:35:11;13.60;;;7.57;;
55641;SDS011;41509;53.108;6.100;2023-04-07T07:37:37;13.63;;;7.77;;
55641;SDS011;41509;53.108;6.100;2023-04-07T07:40:03;14.33;;;8.47;;
55641;SDS011;41509;53.108;6.100;2023-04-07T07:42:29;16.40;;;8.85;;
55641;SDS011;41509;53.108;6.100;2023-04-07T07:47:21;14.82;;;7.65;;
55641;SDS011;41509;53.108;6.100;2023-04-07T07:49:47;18.50;;;9.55;;
55641;SDS011;41509;53.108;6.100;2023-04-07T07:52:13;20.15;;;9.85;;
55641;SDS011;41509;53.108;6.100;2023-04-07T07:54:39;15.05;;;9.18;;
55641;SDS011;41509;53.108;6.100;2023-04-07T07:57:05;17.25;;;9.13;;
55641;SDS011;41509;53.108;6.100;2023-04-07T07:59:31;15.63;;;9.33;;
55641;SDS011;41509;53.108;6.100;2023-04-07T08:01:57;15.10;;;8.70;;
55641;SDS011;41509;53.108;6.100;2023-04-07T08:04:23;16.57;;;9.63;;
55641;SDS011;41509;53.108;6.100;2023-04-07T08:06:49;13.75;;;8.45;;
55641;SDS011;41509;53.108;6.100;2023-04-07T08:09:15;14.75;;;8.60;;
55641;SDS011;41509;53.108;6.100;2023-04-07T08:11:41;17.60;;;9.68;;
55641;SDS011;41509;53.108;6.100;2023-04-07T08:14:07;20.53;;;10.93;;
55641;SDS011;41509;53.108;6.100;2023-04-07T08:16:33;16.58;;;10.05;;
55641;SDS011;41509;53.108;6.100;2023-04-07T08:18:58;15.63;;;9.47;;
55641;SDS011;41509;53.108;6.100;2023-04-07T08:21:24;18.42;;;9.60;;
55641;SDS011;41509;53.108;6.100;2023-04-07T08:26:20;18.25;;;9.95;;
55641;SDS011;41509;53.108;6.100;2023-04-07T08:28:47;16.95;;;9.88;;
55641;SDS011;41509;53.108;6.100;2023-04-07T08:31:15;15.43;;;9.23;;
55641;SDS011;41509;53.108;6.100;2023-04-07T08:33:41;16.38;;;9.38;;
55641;SDS011;41509;53.108;6.100;2023-04-07T08:36:07;17.13;;;9.27;;
55641;SDS011;41509;53.108;6.100;2023-04-07T08:38:32;17.53;;;9.73;;
55641;SDS011;41509;53.108;6.100;2023-04-07T08:41:02;16.30;;;9.33;;
55641;SDS011;41509;53.108;6.100;2023-04-07T08:43:32;16.05;;;9.65;;
55641;SDS011;41509;53.108;6.100;2023-04-07T08:46:02;16.73;;;9.43;;
55641;SDS011;41509;53.108;6.100;2023-04-07T08:48:29;15.40;;;8.27;;
55641;SDS011;41509;53.108;6.100;2023-04-07T08:51:05;15.73;;;8.88;;
55641;SDS011;41509;53.108;6.100;2023-04-07T08:53:40;13.60;;;8.55;;
55641;SDS011;41509;53.108;6.100;2023-04-07T08:56:12;15.70;;;9.05;;
55641;SDS011;41509;53.108;6.100;2023-04-07T08:58:39;15.85;;;8.95;;
55641;SDS011;41509;53.108;6.100;2023-04-07T09:01:04;14.02;;;8.20;;
55641;SDS011;41509;53.108;6.100;2023-04-07T09:03:31;13.93;;;8.73;;
55641;SDS011;41509;53.108;6.100;2023-04-07T09:05:59;18.48;;;8.30;;
55641;SDS011;41509;53.108;6.100;2023-04-07T09:08:25;12.25;;;7.00;;
55641;SDS011;41509;53.108;6.100;2023-04-07T09:10:51;12.47;;;7.27;;
55641;SDS011;41509;53.108;6.100;2023-04-07T09:15:43;14.02;;;7.63;;
55641;SDS011;41509;53.108;6.100;2023-04-07T09:18:09;15.20;;;7.38;;
55641;SDS011;41509;53.108;6.100;2023-04-07T09:25:58;11.50;;;7.20;;
55641;SDS011;41509;53.108;6.100;2023-04-07T09:28:37;10.63;;;6.78;;
55641;SDS011;41509;53.108;6.100;2023-04-07T09:31:04;11.27;;;7.15;;
55641;SDS011;41509;53.108;6.100;2023-04-07T09:33:30;11.33;;;6.67;;
55641;SDS011;41509;53.108;6.100;2023-04-07T09:35:58;12.85;;;6.78;;
55641;SDS011;41509;53.108;6.100;2023-04-07T09:38:23;12.70;;;7.40;;
55641;SDS011;41509;53.108;6.100;2023-04-07T09:41:20;14.80;;;7.03;;
55641;SDS011;41509;53.108;6.100;2023-04-07T09:43:45;10.18;;;6.65;;
55641;SDS011;41509;53.108;6.100;2023-04-07T09:46:15;8.82;;;5.50;;
55641;SDS011;41509;53.108;6.100;2023-04-07T09:48:43;10.85;;;6.13;;
55641;SDS011;41509;53.108;6.100;2023-04-07T09:51:16;9.18;;;5.55;;
55641;SDS011;41509;53.108;6.100;2023-04-07T09:53:43;9.52;;;5.72;;
55641;SDS011;41509;53.108;6.100;2023-04-07T09:56:20;9.20;;;6.05;;
55641;SDS011;41509;53.108;6.100;2023-04-07T09:58:47;9.38;;;5.82;;
55641;SDS011;41509;53.108;6.100;2023-04-07T10:01:15;11.13;;;5.95;;
55641;SDS011;41509;53.108;6.100;2023-04-07T10:03:42;8.15;;;5.03;;
55641;SDS011;41509;53.108;6.100;2023-04-07T10:06:08;13.10;;;5.95;;
55641;SDS011;41509;53.108;6.100;2023-04-07T10:08:35;10.40;;;5.78;;
55641;SDS011;41509;53.108;6.100;2023-04-07T10:11:03;8.85;;;5.57;;
55641;SDS011;41509;53.108;6.100;2023-04-07T10:13:31;9.40;;;6.03;;
55641;SDS011;41509;53.108;6.100;2023-04-07T10:15:58;8.85;;;5.55;;
55641;SDS011;41509;53.108;6.100;2023-04-07T10:20:52;8.40;;;5.22;;
55641;SDS011;41509;53.108;6.100;2023-04-07T10:23:21;9.18;;;5.20;;
55641;SDS011;41509;53.108;6.100;2023-04-07T10:25:56;10.43;;;6.03;;
55641;SDS011;41509;53.108;6.100;2023-04-07T10:28:23;8.02;;;5.07;;
55641;SDS011;41509;53.108;6.100;2023-04-07T10:30:51;9.32;;;5.38;;
55641;SDS011;41509;53.108;6.100;2023-04-07T10:33:17;9.32;;;5.10;;
55641;SDS011;41509;53.108;6.100;2023-04-07T10:36:10;9.82;;;4.88;;
55641;SDS011;41509;53.108;6.100;2023-04-07T10:38:36;7.97;;;5.28;;
55641;SDS011;41509;53.108;6.100;2023-04-07T10:43:57;8.02;;;4.93;;
55641;SDS011;41509;53.108;6.100;2023-04-07T10:46:22;7.67;;;4.63;;
55641;SDS011;41509;53.108;6.100;2023-04-07T10:49:06;8.70;;;5.10;;
55641;SDS011;41509;53.108;6.100;2023-04-07T10:51:33;9.98;;;4.68;;
55641;SDS011;41509;53.108;6.100;2023-04-07T10:59:29;7.45;;;4.00;;
55641;SDS011;41509;53.108;6.100;2023-04-07T11:04:37;6.45;;;4.45;;
55641;SDS011;41509;53.108;6.100;2023-04-07T11:07:04;7.07;;;4.10;;
55641;SDS011;41509;53.108;6.100;2023-04-07T11:09:30;5.55;;;3.40;;
55641;SDS011;41509;53.108;6.100;2023-04-07T11:11:56;6.23;;;3.67;;
55641;SDS011;41509;53.108;6.100;2023-04-07T11:14:28;7.17;;;3.77;;
55641;SDS011;41509;53.108;6.100;2023-04-07T11:16:55;14.05;;;6.95;;
55641;SDS011;41509;53.108;6.100;2023-04-07T11:19:22;8.00;;;4.53;;
55641;SDS011;41509;53.108;6.100;2023-04-07T11:21:48;6.55;;;4.07;;
55641;SDS011;41509;53.108;6.100;2023-04-07T11:24:35;6.72;;;4.18;;
55641;SDS011;41509;53.108;6.100;2023-04-07T11:27:04;6.10;;;3.65;;
55641;SDS011;41509;53.108;6.100;2023-04-07T11:29:31;7.93;;;4.55;;
55641;SDS011;41509;53.108;6.100;2023-04-07T11:31:58;6.20;;;3.65;;
55641;SDS011;41509;53.108;6.100;2023-04-07T11:34:31;5.97;;;3.50;;
55641;SDS011;41509;53.108;6.100;2023-04-07T11:37:17;7.40;;;4.30;;
55641;SDS011;41509;53.108;6.100;2023-04-07T11:39:54;6.60;;;3.70;;
55641;SDS011;41509;53.108;6.100;2023-04-07T11:42:34;7.05;;;4.13;;
55641;SDS011;41509;53.108;6.100;2023-04-07T11:45:01;5.57;;;3.10;;
55641;SDS011;41509;53.108;6.100;2023-04-07T11:47:36;7.47;;;4.78;;
55641;SDS011;41509;53.108;6.100;2023-04-07T11:50:03;6.28;;;4.07;;
55641;SDS011;41509;53.108;6.100;2023-04-07T11:52:39;6.40;;;3.90;;
55641;SDS011;41509;53.108;6.100;2023-04-07T11:55:06;8.23;;;3.90;;
55641;SDS011;41509;53.108;6.100;2023-04-07T11:57:48;7.00;;;3.97;;
55641;SDS011;41509;53.108;6.100;2023-04-07T12:00:18;7.00;;;4.00;;
55641;SDS011;41509;53.108;6.100;2023-04-07T12:05:10;6.68;;;3.80;;
55641;SDS011;41509;53.108;6.100;2023-04-07T12:07:36;6.15;;;4.13;;
55641;SDS011;41509;53.108;6.100;2023-04-07T12:10:22;6.63;;;4.03;;
55641;SDS011;41509;53.108;6.100;2023-04-07T12:12:51;7.85;;;4.28;;
55641;SDS011;41509;53.108;6.100;2023-04-07T12:15:17;6.90;;;4.27;;
55641;SDS011;41509;53.108;6.100;2023-04-07T12:17:47;8.60;;;4.90;;
55641;SDS011;41509;53.108;6.100;2023-04-07T12:20:13;6.78;;;3.67;;
55641;SDS011;41509;53.108;6.100;2023-04-07T12:22:42;6.57;;;3.72;;
55641;SDS011;41509;53.108;6.100;2023-04-07T12:25:08;6.13;;;3.63;;
55641;SDS011;41509;53.108;6.100;2023-04-07T12:27:34;5.50;;;3.40;;
55641;SDS011;41509;53.108;6.100;2023-04-07T12:30:00;6.93;;;4.07;;
55641;SDS011;41509;53.108;6.100;2023-04-07T12:32:25;5.07;;;3.20;;
55641;SDS011;41509;53.108;6.100;2023-04-07T12:34:53;6.35;;;3.58;;
55641;SDS011;41509;53.108;6.100;2023-04-07T12:37:19;6.63;;;3.80;;
55641;SDS011;41509;53.108;6.100;2023-04-07T12:39:44;5.07;;;3.35;;
55641;SDS011;41509;53.108;6.100;2023-04-07T12:42:10;5.57;;;3.53;;
55641;SDS011;41509;53.108;6.100;2023-04-07T12:44:39;6.82;;;3.83;;
55641;SDS011;41509;53.108;6.100;2023-04-07T12:47:10;7.68;;;3.65;;
55641;SDS011;41509;53.108;6.100;2023-04-07T12:49:36;5.18;;;3.20;;
55641;SDS011;41509;53.108;6.100;2023-04-07T12:52:02;6.68;;;3.80;;
55641;SDS011;41509;53.108;6.100;2023-04-07T12:54:27;6.10;;;3.70;;
55641;SDS011;41509;53.108;6.100;2023-04-07T12:56:54;6.97;;;3.95;;
55641;SDS011;41509;53.108;6.100;2023-04-07T12:59:21;7.07;;;3.63;;
55641;SDS011;41509;53.108;6.100;2023-04-07T13:01:48;6.53;;;3.72;;
55641;SDS011;41509;53.108;6.100;2023-04-07T13:04:14;10.50;;;4.57;;
55641;SDS011;41509;53.108;6.100;2023-04-07T13:06:39;6.75;;;4.15;;
55641;SDS011;41509;53.108;6.100;2023-04-07T13:09:05;5.77;;;3.63;;
55641;SDS011;41509;53.108;6.100;2023-04-07T13:11:31;6.70;;;4.27;;
55641;SDS011;41509;53.108;6.100;2023-04-07T13:13:56;4.88;;;3.47;;
55641;SDS011;41509;53.108;6.100;2023-04-07T13:16:22;5.40;;;3.57;;
55641;SDS011;41509;53.108;6.100;2023-04-07T13:18:47;5.03;;;3.07;;
55641;SDS011;41509;53.108;6.100;2023-04-07T13:21:13;5.13;;;3.23;;
55641;SDS011;41509;53.108;6.100;2023-04-07T13:23:39;5.77;;;3.17;;
55641;SDS011;41509;53.108;6.100;2023-04-07T13:26:04;5.45;;;3.25;;
55641;SDS011;41509;53.108;6.100;2023-04-07T13:28:30;6.03;;;3.70;;
55641;SDS011;41509;53.108;6.100;2023-04-07T13:30:56;6.25;;;3.35;;
55641;SDS011;41509;53.108;6.100;2023-04-07T13:33:21;6.17;;;3.70;;
55641;SDS011;41509;53.108;6.100;2023-04-07T13:35:47;5.37;;;3.13;;
55641;SDS011;41509;53.108;6.100;2023-04-07T13:38:12;6.47;;;3.63;;
55641;SDS011;41509;53.108;6.100;2023-04-07T13:40:38;5.50;;;3.60;;
55641;SDS011;41509;53.108;6.100;2023-04-07T13:43:05;6.10;;;3.40;;
55641;SDS011;41509;53.108;6.100;2023-04-07T13:47:57;6.07;;;3.40;;
55641;SDS011;41509;53.108;6.100;2023-04-07T13:50:26;5.72;;;3.67;;
55641;SDS011;41509;53.108;6.100;2023-04-07T13:52:51;5.90;;;3.37;;
55641;SDS011;41509;53.108;6.100;2023-04-07T13:55:17;6.50;;;3.60;;
55641;SDS011;41509;53.108;6.100;2023-04-07T13:57:45;4.65;;;2.80;;
55641;SDS011;41509;53.108;6.100;2023-04-07T14:00:14;5.63;;;3.15;;
55641;SDS011;41509;53.108;6.100;2023-04-07T14:02:40;5.60;;;3.38;;
55641;SDS011;41509;53.108;6.100;2023-04-07T14:05:06;4.70;;;3.17;;
55641;SDS011;41509;53.108;6.100;2023-04-07T14:07:32;5.05;;;3.20;;
55641;SDS011;41509;53.108;6.100;2023-04-07T14:09:58;4.90;;;3.10;;
55641;SDS011;41509;53.108;6.100;2023-04-07T14:12:24;6.27;;;3.17;;
55641;SDS011;41509;53.108;6.100;2023-04-07T14:14:49;6.07;;;3.20;;
55641;SDS011;41509;53.108;6.100;2023-04-07T14:17:18;5.78;;;3.08;;
55641;SDS011;41509;53.108;6.100;2023-04-07T14:19:44;5.30;;;3.13;;
55641;SDS011;41509;53.108;6.100;2023-04-07T14:22:10;6.03;;;3.65;;
55641;SDS011;41509;53.108;6.100;2023-04-07T14:27:03;4.85;;;2.90;;
55641;SDS011;41509;53.108;6.100;2023-04-07T14:29:34;6.07;;;3.10;;
55641;SDS011;41509;53.108;6.100;2023-04-07T14:32:06;5.90;;;3.60;;
55641;SDS011;41509;53.108;6.100;2023-04-07T14:34:32;5.50;;;3.05;;
55641;SDS011;41509;53.108;6.100;2023-04-07T14:36:57;4.07;;;2.80;;
55641;SDS011;41509;53.108;6.100;2023-04-07T14:39:23;5.45;;;3.10;;
55641;SDS011;41509;53.108;6.100;2023-04-07T14:41:49;3.97;;;2.40;;
55641;SDS011;41509;53.108;6.100;2023-04-07T14:44:21;5.00;;;3.10;;
55641;SDS011;41509;53.108;6.100;2023-04-07T14:46:47;3.97;;;2.40;;
55641;SDS011;41509;53.108;6.100;2023-04-07T14:49:13;4.45;;;3.00;;
55641;SDS011;41509;53.108;6.100;2023-04-07T14:51:39;6.50;;;2.97;;
55641;SDS011;41509;53.108;6.100;2023-04-07T14:54:05;6.55;;;3.45;;
55641;SDS011;41509;53.108;6.100;2023-04-07T14:56:30;5.47;;;2.97;;
55641;SDS011;41509;53.108;6.100;2023-04-07T14:58:56;4.28;;;2.90;;
55641;SDS011;41509;53.108;6.100;2023-04-07T15:01:22;4.82;;;3.17;;
55641;SDS011;41509;53.108;6.100;2023-04-07T15:03:47;5.20;;;3.03;;
55641;SDS011;41509;53.108;6.100;2023-04-07T15:06:15;6.63;;;3.55;;
55641;SDS011;41509;53.108;6.100;2023-04-07T15:08:40;5.63;;;3.28;;
55641;SDS011;41509;53.108;6.100;2023-04-07T15:11:09;5.47;;;3.53;;
55641;SDS011;41509;53.108;6.100;2023-04-07T15:13:35;6.05;;;3.88;;
55641;SDS011;41509;53.108;6.100;2023-04-07T15:16:09;6.22;;;3.65;;
55641;SDS011;41509;53.108;6.100;2023-04-07T15:18:36;6.10;;;3.67;;
55641;SDS011;41509;53.108;6.100;2023-04-07T15:21:04;7.10;;;4.45;;
55641;SDS011;41509;53.108;6.100;2023-04-07T15:23:31;6.15;;;3.90;;
55641;SDS011;41509;53.108;6.100;2023-04-07T15:25:59;5.68;;;3.78;;
55641;SDS011;41509;53.108;6.100;2023-04-07T15:28:25;5.47;;;3.58;;
55641;SDS011;41509;53.108;6.100;2023-04-07T15:30:54;6.60;;;3.47;;
55641;SDS011;41509;53.108;6.100;2023-04-07T15:33:19;7.55;;;4.07;;
55641;SDS011;41509;53.108;6.100;2023-04-07T15:35:45;7.57;;;3.60;;
55641;SDS011;41509;53.108;6.100;2023-04-07T15:38:13;8.47;;;3.07;;